Maryland METAR Reports


Distance/Direction noted is from Ellicott City, MD as the crow flies

KCBE - Cumberland - 118 miles WNW
Updated: Thu, 09/18/2014 1:37 PM
Mostly Cloudy
Mostly Cloudy
 Wind from N
Wind: N 5 mph
Temperature: 75°F
Dew Point: 45°F
Humidity: 34%
Barometer: 30.07 inHg
Clouds: Mostly Cloudy
Visibility: 10 miles
Cloud Details: Mostly Cloudy 5500 ft
Mostly Cloudy 7000 ft
2014/09/18 17:37 KCBE 181737Z AUTO 35004KT 10SM BKN055 BKN070 24/07 A3007 RMK AO1
KHGR - Hagerstown - 57 miles NW
Updated: Thu, 09/18/2014 12:53 PM
Partly Cloudy
Partly Cloudy
 
Temperature: 73°F
Dew Point: 48°F
Humidity: 41%
Barometer: 30.03 inHg
Clouds: Partly Cloudy
Visibility: 10 miles
Cloud Details: Partly Cloudy 10000 ft
2014/09/18 16:53 KHGR 181653Z 10SM SCT100 23/09 A3003 RMK AO2 SLP174 T02330089
 
KFDK - Frederick - 34 miles NW
Updated: Thu, 09/18/2014 12:55 PM
Mostly Cloudy
Mostly Cloudy
 Wind from NNE
Wind: NNE 12 mph
Temperature: 79°F
Dew Point: 54°F
Humidity: 42%
Barometer: 30.05 inHg
Clouds: Mostly Cloudy
Visibility: 10 miles
Cloud Details: Mostly Cloudy 11000 ft
2014/09/18 16:55 KFDK 181655Z 03010KT 10SM BKN110 26/12 A3005
KGAI - Gaithersburg - 26 miles SW
Updated: Thu, 09/18/2014 1:35 PM
Mostly Cloudy
Mostly Cloudy
 Wind from NW
Wind: NW 6 mph
Temperature: 73°F
Dew Point: 57°F
Humidity: 57%
Barometer: 30.05 inHg
Clouds: Mostly Cloudy
Visibility: 10 miles
Cloud Details: Few Clouds 3900 ft
Few Clouds 5000 ft
Mostly Cloudy 7000 ft
2014/09/18 17:35 KGAI 181735Z AUTO 31005KT 10SM FEW039 FEW050 BKN070 23/14 A3005 RMK AO1
 
KBWI - BWI Airport - 15 miles SE
Updated: Thu, 09/18/2014 1:37 PM
Mostly Cloudy
Mostly Cloudy
 Wind from ENE
Wind: ENE 7 mph
Temperature: 70°F
Dew Point: 63°F
Humidity: 78%
Barometer: 30.00 inHg
Clouds: Mostly Cloudy
Visibility: 10 miles
Cloud Details: Partly Cloudy 2700 ft
Mostly Cloudy 4000 ft
Mostly Cloudy 10000 ft
Mostly Cloudy 16000 ft
2014/09/18 17:37 KBWI 181737Z 07006KT 10SM SCT027TCU BKN040 BKN100 BKN160 21/17 A3000 RMK AO2 RAE36 TCU ALQDS P0001
KNAK - Annapolis - 32 miles SSE
Updated: Thu, 09/18/2014 12:54 PM

 Wind from S
Wind: S 10 mph
Temperature: 73°F
Dew Point: 61°F
Humidity: 65%
Barometer: 30.01 inHg
Visibility: 10 miles
2014/09/18 16:54 KNAK 181654Z AUTO 17009KT 10SM 23/16 A3001 RMK AO2 SLP164 T02280161 $
 
KESN - Easton - 63 miles SE
Updated: Thu, 09/18/2014 12:50 PM
Mostly Cloudy
Mostly Cloudy
 Wind from varies
Wind: varies 5 mph
Temperature: 73°F
Dew Point: 61°F
Humidity: 65%
Barometer: 30.05 inHg
Clouds: Mostly Cloudy
Visibility: 10 miles
Cloud Details: Partly Cloudy 2500 ft
Mostly Cloudy 6000 ft
2014/09/18 16:50 KESN 181650Z VRB04KT 10SM SCT025 BKN060 23/16 A3005
KSBY - Salisbury - 112 miles SE
Updated: Thu, 09/18/2014 12:54 PM
Clear
Clear
 Wind from N
Wind: N 6 mph
Temperature: 79°F
Dew Point: 48°F
Humidity: 34%
Barometer: 30.01 inHg
Clouds: Clear
Visibility: 10 miles
2014/09/18 16:54 KSBY 181654Z 36005KT 10SM CLR 26/09 A3001 RMK AO2 SLP166 T02560094